Dubuque Regional Airport
KDBQ : now visible

Airfield :











YOU CAN JOIN US ON...

 
LOGIN :

Register | Disclaimer

   EN    FR    IT 

 









Legend :    VFR   Marginal VFR   IFR   Intensive IFR   Very Intensive IFR
Visi :
Ceiling :
>= 8 km
>= 3000ft
5 to 8 km
1000 to 3000 ft
1500m to 5 km
500 to 1000 ft
800 to 1500m
200 to 500 ft
< 800m
< 200 ft
Symbols :   Thunderstorms  Fog  Heavy snow  Heavy precipitations  Wind > 20 kt






- Airport Elevation : 1077 ft
- IATA code : DBQ


KDBQ - Dubuque Regional

CURRENT METAR :
  • 202138Z 11006KT 10SM SCT010 BKN017 OVC024 21/21 A2960 RMK AO2 T02110206

EXPIRED METARs :
  • 202123Z 00000KT 10SM BKN009 BKN014 OVC025 21/20 A2962 RMK AO2 T02060200
  • 202112Z 06003KT 10SM SCT008 BKN014 OVC050 21/20 A2962 RMK AO2 T02060200
  • 202053Z 07003KT 10SM OVC050 21/19 A2962 RMK AO2 RAE20 SLP028 P0002 60021 T02060194 58022
  • 201953Z 00000KT 3SM -RA BR FEW026 BKN036 OVC075 19/18 A2968 RMK AO2 SLP046 P0011 T01940183
  • 201944Z 13005KT 1 1/2SM R36/4500VP6000FT +RA BR FEW024 BKN034 OVC075 19/18 A2968 RMK AO2 P0007 T01940183
  • 201937Z 17005KT 2SM R36/6000VP6000FT +RA BR FEW031 SCT045 OVC075 20/18 A2969 RMK AO2 P0004 T02000183
  • 201912Z 15007KT 10SM -RA SCT010 BKN080 OVC095 21/18 A2969 RMK AO2 P0000 T02060183 $
  • 201859Z 17004KT 4SM -RA BR BKN010 BKN020 OVC070 21/19 A2970 RMK AO2 P0000 T02060189 $
  • 201853Z 19005KT 4SM -RA BR SCT014 BKN075 OVC095 21/19 A2970 RMK AO2 SLP053 P0008 T02060189 $

TAF KDBQ
Valid from the 20 at 21:00 until the 21 at 18:00 UTC


202125Z 2021/2118 05005KT P6SM SCT014 BKN050
TEMPO 2021/2023 BKN014
FM210000 24011KT 3SM +TSRA BKN030CB
FM210300 29013KT P6SM BKN070
FM210800 31014G23KT P6SM SCT025
KZAU FIR / North America



MET'MAP, your aeronautical weather chart ! - Copyright ORBIFLY December 2007 - Disclaimer

ORBIFLY MET'MAP TEAM :

Programming & Development : Alexandra Zaïnal
Concept & original design : Baudouin d'Aumeries
Assistance for programming : Marc-Olivier Méhu
Technical & hardware support : Manuel Goepfert

Contact : metmap@orbifly.com




SOURCES & CREDITS :

   NOAA       Earth
Advisory